Relevés horaires Eggishorn (Suisse)


Relevés horaires à Eggishorn - Samedi 07 Août 2021
Heure UTC1 Température [°C] Vent [km/h] Hum. [%] Pres.4 [hPa] Visi. [Km] Nébu. [octa] Préc.5 [mm] Cond.
2m. Res. Ros. Dir.2 Vit. Moy. Raf.3
23:00 3.2 1.2 -0.2 NO 7.4 -- 31.5 78 700(0.5/3h) -- -- -- --
22:00 2.9 -0.1 1.6 O 11.1 -- 22.2 91 700(1.0/3h) -- -- -- --
21:00 3.6 0.1 1.2 SO 14.8 -- 29.6 84 700(0.9/3h) -- -- -- --
20:00 2.6 1.1 2.6 SSE 5.6 -- 14.8 100 700(1.0/3h) -- -- -- --
19:00 3.1 0.1 3.1 O 11.1 -- 29.6 100 700(0.7/3h) -- -- -- --
18:00 3.7 -0.8 3.7 O 22.2 -- 55.6 100 700(0.7/3h) -- -- -- --
17:00 4.2 0.3 4.2 OSO 18.5 -- 46.3 100 700(0.5/3h) -- -- -- --
16:00 4.2 -1.3 4.2 O 33.3 -- 55.6 100 700(0.6/3h) -- -- -- --
15:00 5.2 0.7 4.7 SO 25.9 -- 53.7 97 700(0.1/3h) -- -- -- --
14:00 5.0 2.1 5.0 SSE 13.0 -- 48.2 100 700(-0.4/3h) -- -- -- --
13:00 5.1 1.1 5.1 SE 20.4 -- 53.7 100 700(-1.1/3h) -- -- -- --
12:00 4.8 0.6 4.8 SSE 22.2 -- 48.2 100 700(-1.0/3h) -- -- -- --
11:00 5.2 1.7 5.2 SSE 16.7 -- 40.7 100 700(-0.5/3h) -- -- -- --
10:00 5.0 1.8 5.0 SE 14.8 -- 31.5 100 700(-0.2/3h) -- -- -- --
09:00 4.5 1.2 4.5 SE 14.8 -- 37.0 100 700(-0.2/3h) -- -- -- --
08:00 4.6 1.6 4.6 SSE 13.0 -- 29.6 100 700(-0.5/3h) -- -- -- --
07:00 4.6 2.3 4.6 SE 9.3 -- 24.1 100 700(-0.4/3h) -- -- -- --
06:00 4.6 0.3 4.5 SE 22.2 -- 31.5 99 700(-0.5/3h) -- -- -- --
05:00 4.4 0.8 3.0 SE 16.7 -- 24.1 91 700(-0.6/3h) -- -- -- --
04:00 4.1 0.4 2.6 ESE 16.7 -- 20.4 90 700(-0.6/3h) -- -- -- --
03:00 4.2 1.5 2.2 S 11.1 -- 18.5 87 700(-0.3/3h) -- -- -- --
02:00 4.3 3.1 3.2 S 5.6 -- 13.0 93 700(-0.5/3h) -- -- -- --
01:00 4.3 1.6 3.0 S 11.1 -- 13.0 91 700(-0.4/3h) -- -- -- --
00:00 4.4 2.1 3.4 S 9.3 -- 31.5 93 700(-0.6/3h) -- -- -- --

1 Coordinated Universal Time. Actuellement il est 13:00 locale et 11:00 UTC.

2 Le vent souffle depuis la direction indiquée vers la direction oposée.

3 Les rafales max. sont disponible 40 min après l'heure du relevé.

4 Pour les stations d'altitude (plus de 600m) le géopotentiel du niveau le plus proche de la pression obligatoire est indiqué.

5 Les stations disposant d'un diffuseur peuvent indiquer "trace". Cela signifie que des précipitations ont touchés le sol mais que la quantité est inférieure à 0.1 mm.

Copyright

Les données affichées sur cette page sont la propriété exclusive de Météo Suisse.

Récapitulatif de la journée
Température [°C] Vent [km/h] Ensoleillement4 [h] Precipitations totale5 [mm] Pression [Hpa]
Min1 Max.2 Moy.3 Max. Min Max.
3.7 5.3 0 55.6 1 h 18 min 0 700.0 700.0

1 Température minimale relevée entre 18:00 UTC la veille et 18:00 UTC le jour donné.

2 Température maximale relevée entre 06:00 UTC le jour donné et 06:00 UTC le lendemain.

3 Vent moyen de la journée basé sur les relevés horaires.

4 Ensoleillement en heures relevé entre 06:00 UTC la veille et 06:00 UTC le jour donné.

5 Précipitations totales tombées entre 06:00 UTC la jour donné et 06:00 UTC le lendemain.

Graphiques horaires